sensor_id;sensor_type;location;lat;lon;timestamp;P1;durP1;ratioP1;P2;durP2;ratioP2
63818;SDS011;49970;54.976;73.248;2022-08-03T00:01:52;3.10;;;0.70;;
63818;SDS011;49970;54.976;73.248;2022-08-03T00:04:18;6.22;;;0.90;;
63818;SDS011;49970;54.976;73.248;2022-08-03T00:07:09;3.17;;;0.70;;
63818;SDS011;49970;54.976;73.248;2022-08-03T00:09:35;4.63;;;0.95;;
63818;SDS011;49970;54.976;73.248;2022-08-03T00:12:12;3.72;;;1.00;;
63818;SDS011;49970;54.976;73.248;2022-08-03T00:14:38;10.45;;;0.90;;
63818;SDS011;49970;54.976;73.248;2022-08-03T00:17:04;6.35;;;0.90;;
63818;SDS011;49970;54.976;73.248;2022-08-03T00:19:30;2.55;;;0.80;;
63818;SDS011;49970;54.976;73.248;2022-08-03T00:21:57;3.08;;;0.80;;
63818;SDS011;49970;54.976;73.248;2022-08-03T00:24:23;8.05;;;1.15;;
63818;SDS011;49970;54.976;73.248;2022-08-03T00:26:49;7.53;;;1.30;;
63818;SDS011;49970;54.976;73.248;2022-08-03T00:29:25;5.78;;;1.00;;
63818;SDS011;49970;54.976;73.248;2022-08-03T00:31:52;6.00;;;0.80;;
63818;SDS011;49970;54.976;73.248;2022-08-03T00:34:18;4.20;;;0.90;;
63818;SDS011;49970;54.976;73.248;2022-08-03T00:36:44;8.95;;;1.20;;
63818;SDS011;49970;54.976;73.248;2022-08-03T00:39:10;3.05;;;1.00;;
63818;SDS011;49970;54.976;73.248;2022-08-03T00:41:37;3.50;;;1.02;;
63818;SDS011;49970;54.976;73.248;2022-08-03T00:44:03;9.50;;;1.20;;
63818;SDS011;49970;54.976;73.248;2022-08-03T00:46:30;1.17;;;1.00;;
63818;SDS011;49970;54.976;73.248;2022-08-03T00:48:56;17.83;;;1.50;;
63818;SDS011;49970;54.976;73.248;2022-08-03T00:51:22;10.98;;;1.27;;
63818;SDS011;49970;54.976;73.248;2022-08-03T00:53:49;7.28;;;1.00;;
63818;SDS011;49970;54.976;73.248;2022-08-03T00:56:16;3.97;;;1.20;;
63818;SDS011;49970;54.976;73.248;2022-08-03T00:58:43;5.25;;;1.00;;
63818;SDS011;49970;54.976;73.248;2022-08-03T01:01:11;6.90;;;1.13;;
63818;SDS011;49970;54.976;73.248;2022-08-03T01:03:38;3.17;;;0.90;;
63818;SDS011;49970;54.976;73.248;2022-08-03T01:06:17;6.32;;;0.98;;
63818;SDS011;49970;54.976;73.248;2022-08-03T01:11:50;13.93;;;1.60;;
63818;SDS011;49970;54.976;73.248;2022-08-03T01:14:57;5.85;;;1.02;;
63818;SDS011;49970;54.976;73.248;2022-08-03T01:17:34;3.42;;;1.17;;
63818;SDS011;49970;54.976;73.248;2022-08-03T01:20:09;14.10;;;1.08;;
63818;SDS011;49970;54.976;73.248;2022-08-03T01:31:16;21.50;;;1.88;;
63818;SDS011;49970;54.976;73.248;2022-08-03T01:33:50;17.58;;;1.58;;
63818;SDS011;49970;54.976;73.248;2022-08-03T01:36:23;13.75;;;1.55;;
63818;SDS011;49970;54.976;73.248;2022-08-03T01:39:04;12.50;;;1.67;;
63818;SDS011;49970;54.976;73.248;2022-08-03T01:41:38;20.08;;;1.98;;
63818;SDS011;49970;54.976;73.248;2022-08-03T01:46:36;12.10;;;1.73;;
63818;SDS011;49970;54.976;73.248;2022-08-03T01:49:03;18.58;;;2.78;;
63818;SDS011;49970;54.976;73.248;2022-08-03T01:51:38;23.40;;;3.03;;
63818;SDS011;49970;54.976;73.248;2022-08-03T01:54:08;24.83;;;2.38;;
63818;SDS011;49970;54.976;73.248;2022-08-03T01:56:37;25.30;;;2.65;;
63818;SDS011;49970;54.976;73.248;2022-08-03T01:59:15;24.20;;;2.83;;
63818;SDS011;49970;54.976;73.248;2022-08-03T02:01:45;14.82;;;1.85;;
63818;SDS011;49970;54.976;73.248;2022-08-03T02:04:13;19.35;;;2.13;;
63818;SDS011;49970;54.976;73.248;2022-08-03T02:06:44;25.20;;;2.10;;
63818;SDS011;49970;54.976;73.248;2022-08-03T02:09:12;16.90;;;1.20;;
63818;SDS011;49970;54.976;73.248;2022-08-03T02:11:40;14.65;;;1.23;;
63818;SDS011;49970;54.976;73.248;2022-08-03T02:14:08;32.50;;;1.40;;
63818;SDS011;49970;54.976;73.248;2022-08-03T02:16:36;13.50;;;1.40;;
63818;SDS011;49970;54.976;73.248;2022-08-03T02:19:03;14.30;;;1.30;;
63818;SDS011;49970;54.976;73.248;2022-08-03T02:21:32;6.95;;;1.00;;
63818;SDS011;49970;54.976;73.248;2022-08-03T02:24:02;4.57;;;1.15;;
63818;SDS011;49970;54.976;73.248;2022-08-03T02:26:30;13.65;;;1.63;;
63818;SDS011;49970;54.976;73.248;2022-08-03T02:29:04;11.93;;;1.25;;
63818;SDS011;49970;54.976;73.248;2022-08-03T02:31:36;13.95;;;1.30;;
63818;SDS011;49970;54.976;73.248;2022-08-03T02:34:08;16.02;;;1.13;;
63818;SDS011;49970;54.976;73.248;2022-08-03T02:36:38;11.27;;;1.40;;
63818;SDS011;49970;54.976;73.248;2022-08-03T02:39:18;20.52;;;1.33;;
63818;SDS011;49970;54.976;73.248;2022-08-03T02:41:47;16.83;;;1.35;;
63818;SDS011;49970;54.976;73.248;2022-08-03T02:44:22;15.02;;;1.20;;
63818;SDS011;49970;54.976;73.248;2022-08-03T02:46:52;20.30;;;0.95;;
63818;SDS011;49970;54.976;73.248;2022-08-03T02:49:22;10.82;;;1.23;;
63818;SDS011;49970;54.976;73.248;2022-08-03T02:51:50;7.18;;;1.13;;
63818;SDS011;49970;54.976;73.248;2022-08-03T02:54:18;14.10;;;1.30;;
63818;SDS011;49970;54.976;73.248;2022-08-03T02:56:46;20.60;;;1.70;;
63818;SDS011;49970;54.976;73.248;2022-08-03T02:59:13;17.65;;;1.85;;
63818;SDS011;49970;54.976;73.248;2022-08-03T03:01:43;35.88;;;2.60;;
63818;SDS011;49970;54.976;73.248;2022-08-03T03:05:34;9.05;;;1.75;;
63818;SDS011;49970;54.976;73.248;2022-08-03T03:09:25;15.55;;;1.58;;
63818;SDS011;49970;54.976;73.248;2022-08-03T03:13:15;18.70;;;1.45;;
63818;SDS011;49970;54.976;73.248;2022-08-03T03:17:08;24.90;;;2.13;;
63818;SDS011;49970;54.976;73.248;2022-08-03T03:20:46;25.42;;;1.83;;
63818;SDS011;49970;54.976;73.248;2022-08-03T03:23:17;24.00;;;1.80;;
63818;SDS011;49970;54.976;73.248;2022-08-03T03:25:51;23.00;;;1.75;;
63818;SDS011;49970;54.976;73.248;2022-08-03T03:28:22;17.08;;;1.98;;
63818;SDS011;49970;54.976;73.248;2022-08-03T03:30:58;5.07;;;1.40;;
63818;SDS011;49970;54.976;73.248;2022-08-03T03:33:25;9.00;;;1.45;;
63818;SDS011;49970;54.976;73.248;2022-08-03T03:35:57;12.23;;;1.85;;
63818;SDS011;49970;54.976;73.248;2022-08-03T03:38:23;15.00;;;1.70;;
63818;SDS011;49970;54.976;73.248;2022-08-03T03:40:50;13.68;;;1.25;;
63818;SDS011;49970;54.976;73.248;2022-08-03T03:43:26;7.20;;;1.27;;
63818;SDS011;49970;54.976;73.248;2022-08-03T03:45:54;12.05;;;1.38;;
63818;SDS011;49970;54.976;73.248;2022-08-03T03:48:23;14.23;;;1.23;;
63818;SDS011;49970;54.976;73.248;2022-08-03T03:50:50;8.43;;;1.17;;
63818;SDS011;49970;54.976;73.248;2022-08-03T03:53:17;19.63;;;1.00;;
63818;SDS011;49970;54.976;73.248;2022-08-03T03:55:44;3.70;;;0.90;;
63818;SDS011;49970;54.976;73.248;2022-08-03T03:58:10;13.48;;;1.92;;
63818;SDS011;49970;54.976;73.248;2022-08-03T04:00:42;13.00;;;0.90;;
63818;SDS011;49970;54.976;73.248;2022-08-03T04:03:09;14.48;;;1.10;;
63818;SDS011;49970;54.976;73.248;2022-08-03T04:05:36;12.65;;;0.98;;
63818;SDS011;49970;54.976;73.248;2022-08-03T04:08:31;8.90;;;0.70;;
63818;SDS011;49970;54.976;73.248;2022-08-03T04:14:12;5.65;;;0.70;;
63818;SDS011;49970;54.976;73.248;2022-08-03T04:16:45;12.15;;;0.75;;
63818;SDS011;49970;54.976;73.248;2022-08-03T04:20:35;0.70;;;0.70;;
63818;SDS011;49970;54.976;73.248;2022-08-03T04:23:03;1.50;;;0.70;;
63818;SDS011;49970;54.976;73.248;2022-08-03T04:25:59;5.63;;;0.82;;
63818;SDS011;49970;54.976;73.248;2022-08-03T04:28:38;10.52;;;1.05;;
63818;SDS011;49970;54.976;73.248;2022-08-03T04:31:11;7.80;;;0.82;;
63818;SDS011;49970;54.976;73.248;2022-08-03T04:33:44;14.20;;;1.20;;
63818;SDS011;49970;54.976;73.248;2022-08-03T04:36:18;7.57;;;1.05;;
63818;SDS011;49970;54.976;73.248;2022-08-03T04:39:00;0.60;;;0.57;;
63818;SDS011;49970;54.976;73.248;2022-08-03T04:41:31;3.88;;;0.80;;
63818;SDS011;49970;54.976;73.248;2022-08-03T04:44:04;2.72;;;0.70;;
63818;SDS011;49970;54.976;73.248;2022-08-03T04:46:35;0.70;;;0.70;;
63818;SDS011;49970;54.976;73.248;2022-08-03T04:49:07;1.58;;;0.60;;
63818;SDS011;49970;54.976;73.248;2022-08-03T04:51:35;3.20;;;0.65;;
63818;SDS011;49970;54.976;73.248;2022-08-03T04:54:03;3.90;;;0.52;;
63818;SDS011;49970;54.976;73.248;2022-08-03T04:56:32;6.18;;;0.50;;
63818;SDS011;49970;54.976;73.248;2022-08-03T04:59:06;5.93;;;0.60;;
63818;SDS011;49970;54.976;73.248;2022-08-03T05:01:43;4.32;;;0.70;;
63818;SDS011;49970;54.976;73.248;2022-08-03T05:04:09;9.60;;;0.65;;
63818;SDS011;49970;54.976;73.248;2022-08-03T05:06:40;1.55;;;0.60;;
63818;SDS011;49970;54.976;73.248;2022-08-03T05:09:07;3.95;;;0.68;;
63818;SDS011;49970;54.976;73.248;2022-08-03T05:11:38;1.58;;;0.70;;
63818;SDS011;49970;54.976;73.248;2022-08-03T05:14:05;3.58;;;0.60;;
63818;SDS011;49970;54.976;73.248;2022-08-03T05:16:31;8.48;;;0.60;;
63818;SDS011;49970;54.976;73.248;2022-08-03T05:18:57;7.45;;;0.65;;
63818;SDS011;49970;54.976;73.248;2022-08-03T05:21:25;4.10;;;0.93;;
63818;SDS011;49970;54.976;73.248;2022-08-03T05:23:53;16.63;;;1.05;;
63818;SDS011;49970;54.976;73.248;2022-08-03T05:26:19;4.53;;;0.50;;
63818;SDS011;49970;54.976;73.248;2022-08-03T05:28:46;10.13;;;0.80;;
63818;SDS011;49970;54.976;73.248;2022-08-03T05:31:12;3.00;;;0.60;;
63818;SDS011;49970;54.976;73.248;2022-08-03T05:33:47;20.75;;;0.90;;
63818;SDS011;49970;54.976;73.248;2022-08-03T05:36:14;24.40;;;0.80;;
63818;SDS011;49970;54.976;73.248;2022-08-03T05:38:40;4.93;;;0.55;;
63818;SDS011;49970;54.976;73.248;2022-08-03T05:41:16;4.30;;;0.52;;
63818;SDS011;49970;54.976;73.248;2022-08-03T05:43:43;5.13;;;0.70;;
63818;SDS011;49970;54.976;73.248;2022-08-03T05:46:09;6.88;;;0.68;;
63818;SDS011;49970;54.976;73.248;2022-08-03T05:48:41;11.70;;;0.88;;
63818;SDS011;49970;54.976;73.248;2022-08-03T05:51:07;9.52;;;0.70;;
63818;SDS011;49970;54.976;73.248;2022-08-03T05:53:41;11.85;;;0.80;;
63818;SDS011;49970;54.976;73.248;2022-08-03T05:57:32;15.35;;;0.70;;
63818;SDS011;49970;54.976;73.248;2022-08-03T06:01:23;8.13;;;0.70;;
63818;SDS011;49970;54.976;73.248;2022-08-03T06:05:14;13.50;;;0.80;;
63818;SDS011;49970;54.976;73.248;2022-08-03T06:09:03;5.55;;;0.52;;
63818;SDS011;49970;54.976;73.248;2022-08-03T06:12:54;9.10;;;0.60;;
63818;SDS011;49970;54.976;73.248;2022-08-03T06:16:45;4.53;;;0.60;;
63818;SDS011;49970;54.976;73.248;2022-08-03T06:20:36;2.03;;;0.60;;
63818;SDS011;49970;54.976;73.248;2022-08-03T06:24:27;8.30;;;1.05;;
63818;SDS011;49970;54.976;73.248;2022-08-03T06:28:18;8.02;;;0.65;;
63818;SDS011;49970;54.976;73.248;2022-08-03T06:32:08;6.95;;;0.63;;
63818;SDS011;49970;54.976;73.248;2022-08-03T06:36:00;11.52;;;0.98;;
63818;SDS011;49970;54.976;73.248;2022-08-03T06:39:51;5.30;;;0.52;;
63818;SDS011;49970;54.976;73.248;2022-08-03T06:43:42;11.98;;;0.93;;
63818;SDS011;49970;54.976;73.248;2022-08-03T06:47:33;4.20;;;0.50;;
63818;SDS011;49970;54.976;73.248;2022-08-03T06:51:38;4.70;;;0.73;;
63818;SDS011;49970;54.976;73.248;2022-08-03T06:55:29;6.53;;;0.52;;
63818;SDS011;49970;54.976;73.248;2022-08-03T06:59:20;7.28;;;0.50;;
63818;SDS011;49970;54.976;73.248;2022-08-03T07:01:46;0.40;;;0.32;;
63818;SDS011;49970;54.976;73.248;2022-08-03T07:04:12;5.78;;;0.73;;
63818;SDS011;49970;54.976;73.248;2022-08-03T07:06:39;0.30;;;0.30;;
63818;SDS011;49970;54.976;73.248;2022-08-03T07:09:05;7.97;;;0.60;;
63818;SDS011;49970;54.976;73.248;2022-08-03T07:11:41;4.00;;;0.80;;
63818;SDS011;49970;54.976;73.248;2022-08-03T07:14:08;2.92;;;0.50;;
63818;SDS011;49970;54.976;73.248;2022-08-03T07:16:34;6.93;;;0.60;;
63818;SDS011;49970;54.976;73.248;2022-08-03T07:19:20;7.63;;;0.63;;
63818;SDS011;49970;54.976;73.248;2022-08-03T07:23:36;4.38;;;0.57;;
63818;SDS011;49970;54.976;73.248;2022-08-03T07:27:17;3.03;;;0.50;;
63818;SDS011;49970;54.976;73.248;2022-08-03T07:29:47;1.45;;;0.70;;
63818;SDS011;49970;54.976;73.248;2022-08-03T07:32:23;2.55;;;0.60;;
63818;SDS011;49970;54.976;73.248;2022-08-03T07:35:01;5.10;;;0.60;;
63818;SDS011;49970;54.976;73.248;2022-08-03T07:38:52;6.32;;;0.52;;
63818;SDS011;49970;54.976;73.248;2022-08-03T07:41:39;6.22;;;0.60;;
63818;SDS011;49970;54.976;73.248;2022-08-03T07:44:06;4.80;;;0.50;;
63818;SDS011;49970;54.976;73.248;2022-08-03T07:46:32;10.18;;;0.43;;
63818;SDS011;49970;54.976;73.248;2022-08-03T07:48:58;6.72;;;0.70;;
63818;SDS011;49970;54.976;73.248;2022-08-03T07:51:24;1.63;;;0.80;;
63818;SDS011;49970;54.976;73.248;2022-08-03T07:53:55;5.75;;;0.60;;
63818;SDS011;49970;54.976;73.248;2022-08-03T07:56:22;0.70;;;0.50;;
63818;SDS011;49970;54.976;73.248;2022-08-03T07:58:52;2.42;;;0.70;;
63818;SDS011;49970;54.976;73.248;2022-08-03T08:01:20;8.45;;;0.70;;
63818;SDS011;49970;54.976;73.248;2022-08-03T08:03:47;4.03;;;0.45;;
63818;SDS011;49970;54.976;73.248;2022-08-03T08:06:15;2.03;;;0.70;;
63818;SDS011;49970;54.976;73.248;2022-08-03T08:10:07;1.52;;;0.50;;
63818;SDS011;49970;54.976;73.248;2022-08-03T08:13:57;6.72;;;0.85;;
63818;SDS011;49970;54.976;73.248;2022-08-03T08:17:51;11.25;;;0.63;;
63818;SDS011;49970;54.976;73.248;2022-08-03T08:21:41;6.80;;;0.50;;
63818;SDS011;49970;54.976;73.248;2022-08-03T08:25:32;0.77;;;0.52;;
63818;SDS011;49970;54.976;73.248;2022-08-03T08:29:48;14.30;;;0.60;;
63818;SDS011;49970;54.976;73.248;2022-08-03T08:32:43;7.70;;;0.60;;
63818;SDS011;49970;54.976;73.248;2022-08-03T08:36:09;0.75;;;0.43;;
63818;SDS011;49970;54.976;73.248;2022-08-03T08:38:38;7.22;;;0.52;;
63818;SDS011;49970;54.976;73.248;2022-08-03T08:42:30;6.28;;;0.50;;
63818;SDS011;49970;54.976;73.248;2022-08-03T08:45:18;18.23;;;0.95;;
63818;SDS011;49970;54.976;73.248;2022-08-03T08:47:45;8.98;;;0.55;;
63818;SDS011;49970;54.976;73.248;2022-08-03T08:50:52;1.88;;;0.73;;
63818;SDS011;49970;54.976;73.248;2022-08-03T08:53:20;3.50;;;0.70;;
63818;SDS011;49970;54.976;73.248;2022-08-03T08:55:50;1.77;;;0.52;;
63818;SDS011;49970;54.976;73.248;2022-08-03T08:58:18;2.85;;;0.70;;
63818;SDS011;49970;54.976;73.248;2022-08-03T09:00:52;7.47;;;0.70;;
63818;SDS011;49970;54.976;73.248;2022-08-03T09:03:19;2.92;;;0.70;;
63818;SDS011;49970;54.976;73.248;2022-08-03T09:05:45;9.32;;;0.55;;
63818;SDS011;49970;54.976;73.248;2022-08-03T09:08:13;0.50;;;0.40;;
63818;SDS011;49970;54.976;73.248;2022-08-03T09:10:39;2.40;;;0.40;;
63818;SDS011;49970;54.976;73.248;2022-08-03T09:13:05;10.20;;;0.45;;
63818;SDS011;49970;54.976;73.248;2022-08-03T09:15:33;3.08;;;0.55;;
63818;SDS011;49970;54.976;73.248;2022-08-03T09:18:00;6.22;;;0.60;;
63818;SDS011;49970;54.976;73.248;2022-08-03T09:20:29;3.65;;;0.80;;
63818;SDS011;49970;54.976;73.248;2022-08-03T09:25:44;1.95;;;0.65;;
63818;SDS011;49970;54.976;73.248;2022-08-03T09:28:12;3.03;;;0.55;;
63818;SDS011;49970;54.976;73.248;2022-08-03T09:30:42;10.63;;;0.80;;
63818;SDS011;49970;54.976;73.248;2022-08-03T09:33:11;3.83;;;0.70;;
63818;SDS011;49970;54.976;73.248;2022-08-03T09:37:00;3.60;;;0.60;;
63818;SDS011;49970;54.976;73.248;2022-08-03T09:40:51;3.60;;;0.45;;
63818;SDS011;49970;54.976;73.248;2022-08-03T09:43:18;4.40;;;0.60;;
63818;SDS011;49970;54.976;73.248;2022-08-03T09:45:46;1.58;;;0.40;;
63818;SDS011;49970;54.976;73.248;2022-08-03T09:48:26;2.33;;;0.47;;
63818;SDS011;49970;54.976;73.248;2022-08-03T09:51:00;5.53;;;0.50;;
63818;SDS011;49970;54.976;73.248;2022-08-03T09:53:28;1.80;;;0.43;;
63818;SDS011;49970;54.976;73.248;2022-08-03T09:55:57;19.15;;;0.77;;
63818;SDS011;49970;54.976;73.248;2022-08-03T09:58:28;2.28;;;0.50;;
63818;SDS011;49970;54.976;73.248;2022-08-03T10:00:59;5.10;;;1.73;;
63818;SDS011;49970;54.976;73.248;2022-08-03T10:03:35;1.05;;;0.40;;
63818;SDS011;49970;54.976;73.248;2022-08-03T10:06:24;17.27;;;0.70;;
63818;SDS011;49970;54.976;73.248;2022-08-03T10:53:04;0.63;;;0.43;;
63818;SDS011;49970;54.976;73.248;2022-08-03T10:55:33;3.95;;;0.40;;
63818;SDS011;49970;54.976;73.248;2022-08-03T11:01:13;2.72;;;0.50;;
63818;SDS011;49970;54.976;73.248;2022-08-03T11:07:20;1.43;;;0.50;;
63818;SDS011;49970;54.976;73.248;2022-08-03T11:09:51;3.38;;;0.40;;
63818;SDS011;49970;54.976;73.248;2022-08-03T11:12:29;9.10;;;0.70;;
63818;SDS011;49970;54.976;73.248;2022-08-03T11:15:30;9.15;;;0.77;;
63818;SDS011;49970;54.976;73.248;2022-08-03T11:18:08;4.78;;;0.60;;
63818;SDS011;49970;54.976;73.248;2022-08-03T11:20:51;8.32;;;0.88;;
63818;SDS011;49970;54.976;73.248;2022-08-03T11:26:16;6.00;;;0.50;;
63818;SDS011;49970;54.976;73.248;2022-08-03T11:28:44;1.80;;;0.45;;
63818;SDS011;49970;54.976;73.248;2022-08-03T11:34:04;3.97;;;0.50;;
63818;SDS011;49970;54.976;73.248;2022-08-03T11:39:41;7.47;;;0.50;;
63818;SDS011;49970;54.976;73.248;2022-08-03T11:45:12;7.28;;;0.50;;
63818;SDS011;49970;54.976;73.248;2022-08-03T11:48:01;6.97;;;0.47;;
63818;SDS011;49970;54.976;73.248;2022-08-03T11:50:49;11.90;;;0.50;;
63818;SDS011;49970;54.976;73.248;2022-08-03T11:58:18;6.60;;;0.65;;
63818;SDS011;49970;54.976;73.248;2022-08-03T12:00:47;9.52;;;0.52;;
63818;SDS011;49970;54.976;73.248;2022-08-03T12:03:17;15.55;;;1.15;;
63818;SDS011;49970;54.976;73.248;2022-08-03T12:08:13;2.80;;;0.57;;
63818;SDS011;49970;54.976;73.248;2022-08-03T12:10:54;7.57;;;0.60;;
63818;SDS011;49970;54.976;73.248;2022-08-03T12:13:22;11.43;;;0.90;;
63818;SDS011;49970;54.976;73.248;2022-08-03T12:15:55;13.48;;;0.50;;
63818;SDS011;49970;54.976;73.248;2022-08-03T12:18:23;13.48;;;0.50;;
63818;SDS011;49970;54.976;73.248;2022-08-03T12:21:06;4.38;;;0.45;;
63818;SDS011;49970;54.976;73.248;2022-08-03T12:23:35;3.00;;;0.70;;
63818;SDS011;49970;54.976;73.248;2022-08-03T12:26:08;4.72;;;0.43;;
63818;SDS011;49970;54.976;73.248;2022-08-03T12:28:38;6.07;;;0.70;;
63818;SDS011;49970;54.976;73.248;2022-08-03T12:31:15;5.88;;;0.60;;
63818;SDS011;49970;54.976;73.248;2022-08-03T12:34:08;14.50;;;0.60;;
63818;SDS011;49970;54.976;73.248;2022-08-03T12:37:46;5.25;;;0.63;;
63818;SDS011;49970;54.976;73.248;2022-08-03T12:40:24;14.65;;;0.57;;
63818;SDS011;49970;54.976;73.248;2022-08-03T12:42:54;11.25;;;0.60;;
63818;SDS011;49970;54.976;73.248;2022-08-03T12:45:22;6.10;;;0.63;;
63818;SDS011;49970;54.976;73.248;2022-08-03T12:48:13;14.38;;;0.70;;
63818;SDS011;49970;54.976;73.248;2022-08-03T12:50:50;7.57;;;0.70;;
63818;SDS011;49970;54.976;73.248;2022-08-03T12:53:26;5.35;;;0.50;;
63818;SDS011;49970;54.976;73.248;2022-08-03T12:56:00;6.05;;;0.68;;
63818;SDS011;49970;54.976;73.248;2022-08-03T12:59:47;11.25;;;1.13;;
63818;SDS011;49970;54.976;73.248;2022-08-03T13:02:35;15.18;;;0.63;;
63818;SDS011;49970;54.976;73.248;2022-08-03T13:06:21;3.28;;;0.50;;
63818;SDS011;49970;54.976;73.248;2022-08-03T13:09:16;4.97;;;0.50;;
63818;SDS011;49970;54.976;73.248;2022-08-03T13:11:42;12.65;;;0.90;;
63818;SDS011;49970;54.976;73.248;2022-08-03T13:14:38;5.88;;;0.60;;
63818;SDS011;49970;54.976;73.248;2022-08-03T13:17:05;15.20;;;0.68;;
63818;SDS011;49970;54.976;73.248;2022-08-03T13:19:33;3.35;;;0.60;;
63818;SDS011;49970;54.976;73.248;2022-08-03T13:22:09;10.45;;;0.85;;
63818;SDS011;49970;54.976;73.248;2022-08-03T13:24:42;8.05;;;0.70;;
63818;SDS011;49970;54.976;73.248;2022-08-03T13:27:27;17.17;;;0.65;;
63818;SDS011;49970;54.976;73.248;2022-08-03T13:30:33;7.22;;;1.02;;
63818;SDS011;49970;54.976;73.248;2022-08-03T13:34:24;2.60;;;0.80;;
63818;SDS011;49970;54.976;73.248;2022-08-03T13:38:15;15.35;;;0.95;;
63818;SDS011;49970;54.976;73.248;2022-08-03T13:40:41;3.53;;;0.95;;
63818;SDS011;49970;54.976;73.248;2022-08-03T13:43:19;13.82;;;0.85;;
63818;SDS011;49970;54.976;73.248;2022-08-03T13:45:47;4.68;;;0.63;;
63818;SDS011;49970;54.976;73.248;2022-08-03T13:48:23;3.28;;;0.68;;
63818;SDS011;49970;54.976;73.248;2022-08-03T13:50:50;3.72;;;0.80;;
63818;SDS011;49970;54.976;73.248;2022-08-03T13:53:16;8.80;;;0.80;;
63818;SDS011;49970;54.976;73.248;2022-08-03T13:55:42;3.55;;;0.60;;
63818;SDS011;49970;54.976;73.248;2022-08-03T13:58:19;9.82;;;1.17;;
63818;SDS011;49970;54.976;73.248;2022-08-03T14:00:45;11.13;;;0.90;;
63818;SDS011;49970;54.976;73.248;2022-08-03T14:03:11;13.30;;;0.82;;
63818;SDS011;49970;54.976;73.248;2022-08-03T14:05:48;16.95;;;1.00;;
63818;SDS011;49970;54.976;73.248;2022-08-03T14:10:04;12.75;;;1.05;;
63818;SDS011;49970;54.976;73.248;2022-08-03T14:13:55;13.07;;;0.77;;
63818;SDS011;49970;54.976;73.248;2022-08-03T14:16:21;4.30;;;0.90;;
63818;SDS011;49970;54.976;73.248;2022-08-03T14:20:12;5.80;;;0.80;;
63818;SDS011;49970;54.976;73.248;2022-08-03T14:28:00;10.50;;;0.80;;
63818;SDS011;49970;54.976;73.248;2022-08-03T14:31:51;9.00;;;0.80;;
63818;SDS011;49970;54.976;73.248;2022-08-03T14:34:34;15.50;;;1.33;;
63818;SDS011;49970;54.976;73.248;2022-08-03T14:37:00;14.82;;;1.73;;
63818;SDS011;49970;54.976;73.248;2022-08-03T14:39:26;20.38;;;1.38;;
63818;SDS011;49970;54.976;73.248;2022-08-03T14:41:52;7.15;;;1.10;;
63818;SDS011;49970;54.976;73.248;2022-08-03T14:44:55;28.02;;;1.65;;
63818;SDS011;49970;54.976;73.248;2022-08-03T14:49:11;16.40;;;1.25;;
63818;SDS011;49970;54.976;73.248;2022-08-03T14:51:37;14.73;;;1.05;;
63818;SDS011;49970;54.976;73.248;2022-08-03T14:54:18;33.38;;;1.75;;
63818;SDS011;49970;54.976;73.248;2022-08-03T14:58:10;12.68;;;1.40;;
63818;SDS011;49970;54.976;73.248;2022-08-03T15:00:56;25.30;;;1.45;;
63818;SDS011;49970;54.976;73.248;2022-08-03T15:05:12;26.80;;;1.13;;
63818;SDS011;49970;54.976;73.248;2022-08-03T15:09:03;13.07;;;1.52;;
63818;SDS011;49970;54.976;73.248;2022-08-03T15:11:29;24.60;;;1.48;;
63818;SDS011;49970;54.976;73.248;2022-08-03T15:14:50;24.45;;;1.88;;
63818;SDS011;49970;54.976;73.248;2022-08-03T15:17:37;47.75;;;1.73;;
63818;SDS011;49970;54.976;73.248;2022-08-03T15:20:13;54.50;;;3.17;;
63818;SDS011;49970;54.976;73.248;2022-08-03T15:22:39;46.50;;;2.50;;
63818;SDS011;49970;54.976;73.248;2022-08-03T15:25:06;31.85;;;1.80;;
63818;SDS011;49970;54.976;73.248;2022-08-03T15:28:56;33.15;;;1.80;;
63818;SDS011;49970;54.976;73.248;2022-08-03T15:32:48;10.10;;;1.20;;
63818;SDS011;49970;54.976;73.248;2022-08-03T15:36:39;18.92;;;2.00;;
63818;SDS011;49970;54.976;73.248;2022-08-03T15:40:29;14.82;;;1.55;;
63818;SDS011;49970;54.976;73.248;2022-08-03T15:44:45;29.30;;;1.50;;
63818;SDS011;49970;54.976;73.248;2022-08-03T15:48:36;15.18;;;1.45;;
63818;SDS011;49970;54.976;73.248;2022-08-03T15:51:03;19.45;;;2.17;;
63818;SDS011;49970;54.976;73.248;2022-08-03T15:54:33;21.80;;;2.08;;
63818;SDS011;49970;54.976;73.248;2022-08-03T15:56:59;23.90;;;1.65;;
63818;SDS011;49970;54.976;73.248;2022-08-03T15:59:26;13.02;;;1.55;;
63818;SDS011;49970;54.976;73.248;2022-08-03T16:01:54;11.38;;;1.50;;
63818;SDS011;49970;54.976;73.248;2022-08-03T16:04:21;34.75;;;1.55;;
63818;SDS011;49970;54.976;73.248;2022-08-03T16:08:12;16.15;;;1.58;;
63818;SDS011;49970;54.976;73.248;2022-08-03T16:12:02;13.18;;;1.70;;
63818;SDS011;49970;54.976;73.248;2022-08-03T16:15:52;20.35;;;2.22;;
63818;SDS011;49970;54.976;73.248;2022-08-03T16:18:38;22.88;;;2.60;;
63818;SDS011;49970;54.976;73.248;2022-08-03T16:22:25;18.83;;;2.22;;
63818;SDS011;49970;54.976;73.248;2022-08-03T16:24:52;26.45;;;2.70;;
63818;SDS011;49970;54.976;73.248;2022-08-03T16:27:20;22.98;;;2.38;;
63818;SDS011;49970;54.976;73.248;2022-08-03T16:30:08;22.63;;;2.22;;
63818;SDS011;49970;54.976;73.248;2022-08-03T16:32:36;27.48;;;2.88;;
63818;SDS011;49970;54.976;73.248;2022-08-03T16:35:04;18.25;;;2.22;;
63818;SDS011;49970;54.976;73.248;2022-08-03T16:37:31;25.70;;;2.30;;
63818;SDS011;49970;54.976;73.248;2022-08-03T16:40:28;18.42;;;1.95;;
63818;SDS011;49970;54.976;73.248;2022-08-03T16:42:55;17.55;;;2.28;;
63818;SDS011;49970;54.976;73.248;2022-08-03T16:45:41;16.02;;;2.38;;
63818;SDS011;49970;54.976;73.248;2022-08-03T16:48:08;29.60;;;2.47;;
63818;SDS011;49970;54.976;73.248;2022-08-03T16:50:35;36.38;;;2.65;;
63818;SDS011;49970;54.976;73.248;2022-08-03T16:53:05;22.63;;;2.20;;
63818;SDS011;49970;54.976;73.248;2022-08-03T16:55:33;15.15;;;2.75;;
63818;SDS011;49970;54.976;73.248;2022-08-03T16:59:24;27.95;;;2.15;;
63818;SDS011;49970;54.976;73.248;2022-08-03T17:03:13;28.20;;;2.03;;
63818;SDS011;49970;54.976;73.248;2022-08-03T17:11:17;14.57;;;2.10;;
63818;SDS011;49970;54.976;73.248;2022-08-03T17:19:04;13.63;;;2.63;;
63818;SDS011;49970;54.976;73.248;2022-08-03T17:22:58;15.82;;;2.15;;
63818;SDS011;49970;54.976;73.248;2022-08-03T17:26:41;28.73;;;2.97;;
63818;SDS011;49970;54.976;73.248;2022-08-03T17:30:33;12.32;;;2.50;;
63818;SDS011;49970;54.976;73.248;2022-08-03T17:34:23;20.13;;;2.58;;
63818;SDS011;49970;54.976;73.248;2022-08-03T17:38:12;14.75;;;2.47;;
63818;SDS011;49970;54.976;73.248;2022-08-03T17:42:02;16.00;;;2.38;;
63818;SDS011;49970;54.976;73.248;2022-08-03T17:50:07;10.52;;;2.00;;
63818;SDS011;49970;54.976;73.248;2022-08-03T18:02:27;22.55;;;2.33;;
63818;SDS011;49970;54.976;73.248;2022-08-03T18:06:15;7.07;;;1.75;;
63818;SDS011;49970;54.976;73.248;2022-08-03T18:10:06;17.27;;;2.00;;
63818;SDS011;49970;54.976;73.248;2022-08-03T18:14:14;24.25;;;2.58;;
63818;SDS011;49970;54.976;73.248;2022-08-03T18:18:14;17.65;;;2.70;;
63818;SDS011;49970;54.976;73.248;2022-08-03T18:22:05;11.95;;;2.67;;
63818;SDS011;49970;54.976;73.248;2022-08-03T18:25:56;10.40;;;2.28;;
63818;SDS011;49970;54.976;73.248;2022-08-03T18:29:47;23.77;;;2.67;;
63818;SDS011;49970;54.976;73.248;2022-08-03T18:34:03;8.38;;;2.17;;
63818;SDS011;49970;54.976;73.248;2022-08-03T18:37:54;25.70;;;2.92;;
63818;SDS011;49970;54.976;73.248;2022-08-03T18:41:44;19.17;;;2.83;;
63818;SDS011;49970;54.976;73.248;2022-08-03T18:49:51;20.77;;;5.07;;